| time (UTC) | temp C | wind direction | speed KPH | gust KPH | rain 1hr cm | rain 24hr cm | rain mn cm | humidity % | barometer mb |
| 20260904171559 | 32 | 116 | 6.4 | 17.7 | 0.00 | 0.41 | 0.41 | 55 | 1013.4 |
| 20260904170054 | 31 | 236 | 1.6 | 17.7 | 0.00 | 0.41 | 0.41 | 63 | 1013.5 |
| 20260904164559 | 31 | 128 | 4.8 | 14.5 | 0.00 | 0.41 | 0.41 | 63 | 1013.7 |
| 20260904163056 | 31 | 205 | 8.0 | 16.1 | 0.00 | 0.41 | 0.41 | 65 | 1013.7 |
| 20260904161601 | 30 | 170 | 4.8 | 19.3 | 0.00 | 0.41 | 0.41 | 68 | 1013.7 |
| 20260904154601 | 28 | 182 | 6.4 | 20.9 | 0.00 | 0.41 | 0.41 | 75 | 1013.5 |
| 20260904153051 | 28 | 204 | 8.0 | 16.1 | 0.00 | 0.41 | 0.41 | 78 | 1013.6 |
| 20260904151559 | 28 | 136 | 6.4 | 17.7 | 0.00 | 0.41 | 0.41 | 79 | 1013.4 |
| 20260904150051 | 27 | 219 | 4.8 | 16.1 | 0.00 | 0.41 | 0.41 | 84 | 1013.3 |
| 20260904144553 | 27 | 109 | 4.8 | 14.5 | 0.00 | 0.41 | 0.41 | 88 | 1013.5 |
| 20260904143100 | 26 | 166 | 4.8 | 12.9 | 0.00 | 0.41 | 0.41 | 91 | 1013.5 |
| 20260904141605 | 25 | 142 | 3.2 | 8.0 | 0.00 | 0.41 | 0.41 | 92 | 1013.5 |
| 20260904140105 | 25 | 154 | 3.2 | 11.3 | 0.00 | 0.41 | 0.41 | 92 | 1013.5 |
| 20260904134615 | 25 | 153 | 3.2 | 11.3 | 0.00 | 0.41 | 0.41 | 93 | 1013.3 |
| 20260904133102 | 25 | 142 | 3.2 | 9.7 | 0.00 | 0.41 | 0.41 | 93 | 1013.1 |
| 20260904131602 | 25 | 160 | 1.6 | 11.3 | 0.00 | 0.41 | 0.41 | 93 | 1013.0 |
| 20260904130059 | 24 | 175 | 1.6 | 8.0 | 0.00 | 0.41 | 0.41 | 93 | 1012.7 |
| 20260904124605 | 24 | 125 | 1.6 | 6.4 | 0.00 | 0.41 | 0.41 | 93 | 1012.6 |
| 20260904123053 | 24 | 135 | 1.6 | 4.8 | 0.00 | 0.41 | 0.41 | 93 | 1012.5 |
| 20260904121558 | 24 | 140 | 3.2 | 8.0 | 0.00 | 0.41 | 0.41 | 93 | 1012.3 |
| 20260904120056 | 24 | 144 | 1.6 | 4.8 | 0.00 | 0.41 | 0.41 | 93 | 1012.1 |
| 20260904114551 | 24 | 126 | 1.6 | 6.4 | 0.00 | 0.41 | 0.41 | 93 | 1012.0 |
| 20260904113057 | 24 | 128 | 1.6 | 11.3 | 0.00 | 0.41 | 0.41 | 93 | 1012.0 |
| 20260904111552 | 24 | 126 | 3.2 | 6.4 | 0.00 | 0.41 | 0.41 | 93 | 1011.8 |
| 20260904110105 | 24 | 0 | 1.6 | 8.0 | 0.00 | 0.41 | 0.41 | 93 | 1011.9 |
| 20260904104550 | 24 | 126 | 1.6 | 4.8 | 0.00 | 0.41 | 0.41 | 93 | 1011.8 |
| 20260904103058 | 24 | 136 | 3.2 | 8.0 | 0.00 | 0.41 | 0.41 | 93 | 1011.8 |
| 20260904101555 | 24 | 141 | 3.2 | 9.7 | 0.00 | 0.41 | 0.41 | 93 | 1011.6 |
| 20260904100057 | 24 | 135 | 3.2 | 9.7 | 0.00 | 0.41 | 0.41 | 93 | 1011.6 |
| 20260904094554 | 24 | 131 | 4.8 | 12.9 | 0.00 | 0.41 | 0.41 | 93 | 1011.5 |
| 20260904093054 | 24 | 111 | 4.8 | 12.9 | 0.00 | 0.41 | 0.41 | 93 | 1011.3 |
| 20260904091555 | 24 | 146 | 3.2 | 9.7 | 0.00 | 0.41 | 0.41 | 93 | 1011.5 |
| 20260904090054 | 24 | 111 | 4.8 | 9.7 | 0.00 | 0.41 | 0.41 | 92 | 1011.6 |
| 20260904084556 | 24 | 143 | 3.2 | 9.7 | 0.00 | 0.41 | 0.41 | 92 | 1011.5 |
| 20260904083101 | 24 | 204 | 3.2 | 9.7 | 0.00 | 0.41 | 0.41 | 92 | 1011.5 |
| 20260904081554 | 24 | 138 | 1.6 | 9.7 | 0.03 | 0.41 | 0.41 | 92 | 1011.5 |
| 20260904080052 | 24 | 128 | 6.4 | 14.5 | 0.03 | 0.41 | 0.41 | 92 | 1011.5 |
| 20260904074610 | 24 | 124 | 3.2 | 8.0 | 0.08 | 0.41 | 0.41 | 92 | 1011.6 |
| 20260904073101 | 24 | 142 | 3.2 | 11.3 | 0.18 | 0.41 | 0.41 | 92 | 1011.7 |
| 20260904071550 | 24 | 146 | 4.8 | 12.9 | 0.18 | 0.38 | 0.38 | 91 | 1011.8 |
| 20260904070052 | 24 | 79 | 3.2 | 11.3 | 0.18 | 0.38 | 0.38 | 91 | 1011.9 |
| 20260904064549 | 24 | 173 | 4.8 | 12.9 | 0.33 | 0.33 | 0.33 | 90 | 1011.8 |
| 20260904063103 | 24 | 150 | 4.8 | 9.7 | 0.23 | 0.23 | 0.23 | 90 | 1012.0 |
| 20260904061603 | 24 | 166 | 4.8 | 8.0 | 0.20 | 0.20 | 0.20 | 89 | 1012.0 |
| 20260904060053 | 25 | 116 | 6.4 | 17.7 | 0.20 | 0.20 | 0.20 | 86 | 1011.8 |
| 20260904054600 | 25 | 142 | 4.8 | 12.9 | 0.00 | 0.00 | 0.00 | 83 | 1011.9 |
| 20260904053052 | 25 | 92 | 6.4 | 17.7 | 0.00 | 0.00 | 0.00 | 82 | 1011.9 |
| 20260904051602 | 25 | 136 | 9.7 | 17.7 | 0.00 | 0.00 | 0.00 | 80 | 1011.8 |
| 20260904050105 | 25 | 163 | 8.0 | 16.1 | 0.00 | 0.00 | 0.00 | 79 | 1011.8 |
| 20260904044556 | 25 | 122 | 8.0 | 19.3 | 0.00 | 0.00 | 0.00 | 78 | 1012.0 |
| 20260904043103 | 26 | 108 | 4.8 | 17.7 | 0.00 | 0.00 | 0.00 | 78 | 1011.9 |
| 20260904041600 | 26 | 99 | 9.7 | 22.5 | 0.00 | 0.00 | 0.00 | 77 | 1011.8 |
| 20260904040104 | 26 | 94 | 6.4 | 19.3 | 0.00 | 0.00 | 0.00 | 76 | 1011.8 |
| 20260904034559 | 26 | 143 | 4.8 | 17.7 | 0.00 | 0.00 | 0.00 | 75 | 1012.0 |
| 20260904033059 | 26 | 113 | 6.4 | 20.9 | 0.00 | 0.00 | 0.00 | 75 | 1011.8 |
| 20260904031603 | 26 | 169 | 4.8 | 17.7 | 0.00 | 0.00 | 0.00 | 74 | 1011.7 |
| 20260904030100 | 26 | 145 | 4.8 | 17.7 | 0.00 | 0.00 | 0.00 | 73 | 1011.7 |
| 20260904024603 | 26 | 125 | 6.4 | 16.1 | 0.00 | 0.00 | 0.00 | 72 | 1011.6 |
| 20260904023058 | 26 | 94 | 4.8 | 17.7 | 0.00 | 0.00 | 0.00 | 71 | 1011.4 |
| 20260904021558 | 26 | 127 | 6.4 | 17.7 | 0.00 | 0.00 | 0.00 | 70 | 1011.3 |
| 20260904020054 | 27 | 111 | 6.4 | 16.1 | 0.00 | 0.00 | 0.00 | 69 | 1010.9 |
| 20260904014606 | 27 | 88 | 4.8 | 19.3 | 0.00 | 0.00 | 0.00 | 68 | 1010.5 |
| 20260904013058 | 27 | 136 | 8.0 | 16.1 | 0.00 | 0.00 | 0.00 | 67 | 1010.2 |
| 20260904011553 | 27 | 137 | 6.4 | 19.3 | 0.00 | 0.00 | 0.00 | 65 | 1010.1 |
| 20260904010112 | 28 | 125 | 8.0 | 20.9 | 0.00 | 0.00 | 0.00 | 63 | 1010.1 |
| 20260904004555 | 28 | 136 | 9.7 | 19.3 | 0.00 | 0.00 | 0.00 | 60 | 1010.1 |
| 20260904003106 | 30 | 122 | 9.7 | 24.1 | 0.00 | 0.00 | 0.00 | 59 | 1010.2 |
| 20260904001559 | 31 | 144 | 8.0 | 25.7 | 0.00 | 0.00 | 0.00 | 57 | 1010.1 |
| 20260904000056 | 31 | 123 | 11.3 | 22.5 | 0.00 | 0.00 | 0.00 | 56 | 1010.1 |
| 20260903234557 | 32 | 156 | 12.9 | 25.7 | 0.00 | 0.00 | 0.00 | 56 | 1009.9 |
| 20260903233059 | 33 | 101 | 9.7 | 27.4 | 0.00 | 0.00 | 0.00 | 54 | 1009.6 |
| 20260903231550 | 33 | 196 | 11.3 | 25.7 | 0.00 | 0.00 | 0.00 | 54 | 1009.6 |
| 20260903224556 | 32 | 96 | 9.7 | 24.1 | 0.00 | 0.00 | 0.00 | 59 | 1009.4 |
| 20260903223051 | 33 | 117 | 11.3 | 22.5 | 0.00 | 0.00 | 0.00 | 58 | 1009.5 |
| 20260903221553 | 33 | 138 | 8.0 | 22.5 | 0.00 | 0.00 | 0.00 | 57 | 1009.5 |
| 20260903220057 | 34 | 115 | 9.7 | 20.9 | 0.00 | 0.00 | 0.00 | 54 | 1009.4 |
| 20260903214551 | 35 | 96 | 9.7 | 22.5 | 0.00 | 0.00 | 0.00 | 53 | 1009.4 |
| 20260903213055 | 34 | 88 | 8.0 | 19.3 | 0.00 | 0.00 | 0.00 | 56 | 1009.6 |
| 20260903211557 | 33 | 114 | 11.3 | 22.5 | 0.00 | 0.00 | 0.00 | 59 | 1009.7 |
| 20260903210107 | 33 | 125 | 11.3 | 22.5 | 0.00 | 0.00 | 0.00 | 60 | 1009.8 |
| 20260903204616 | 33 | 116 | 9.7 | 25.7 | 0.00 | 0.00 | 0.00 | 60 | 1009.9 |
| 20260903203051 | 32 | 195 | 8.0 | 20.9 | 0.00 | 0.00 | 0.00 | 61 | 1010.0 |
| 20260903201602 | 32 | 115 | 9.7 | 22.5 | 0.00 | 0.00 | 0.00 | 63 | 1010.2 |
| 20260903200103 | 33 | 88 | 11.3 | 24.1 | 0.00 | 0.00 | 0.00 | 61 | 1010.3 |
| 20260903194557 | 31 | 130 | 9.7 | 19.3 | 0.00 | 0.00 | 0.00 | 65 | 1010.4 |
| 20260903193054 | 31 | 187 | 11.3 | 25.7 | 0.00 | 0.00 | 0.00 | 65 | 1010.7 |
| 20260903191601 | 31 | 198 | 11.3 | 22.5 | 0.00 | 0.00 | 0.00 | 66 | 1011.1 |
| 20260903190053 | 31 | 137 | 11.3 | 22.5 | 0.00 | 0.00 | 0.00 | 68 | 1011.4 |
| 20260903184601 | 30 | 194 | 6.4 | 20.9 | 0.00 | 0.00 | 0.00 | 68 | 1011.7 |
| 20260903183100 | 31 | 119 | 9.7 | 19.3 | 0.00 | 0.00 | 0.00 | 67 | 1011.7 |
| 20260903181553 | 30 | 121 | 9.7 | 24.1 | 0.00 | 0.00 | 0.00 | 69 | 1011.9 |
| 20260903180053 | 31 | 127 | 9.7 | 25.7 | 0.00 | 0.00 | 0.00 | 67 | 1012.1 |
| 20260903174600 | 30 | 157 | 11.3 | 27.4 | 0.00 | 0.00 | 0.00 | 68 | 1012.2 |
| 20260903173100 | 30 | 105 | 9.7 | 24.1 | 0.00 | 0.00 | 0.00 | 68 | 1012.5 |